MOL Celebration — C6WW7 — position and weather

sailwx.info

Track history (hours):
 
Tides and Currents Weather Stations Pressure Air Temp Water Temp Dewpoint Dewpoint Depression Visibility Wind Speed Wind Dir Waves Ship Positions

MOL Celebration

Last reported at 2016-May-23 19:05 UTC. Time now 2016-May-25 18:52 UTC.
Position N 38°30' W 123°59'.

Length 316 m; draft 12.5 m.

Type: Ship (hazmat cat D). MMSI: 309901000.

Date/timePositionNaut miles runAvg speedWind from/ knotsBaromVisibWave heightAir tempDewpointWater temp
2016-May-23 19:05N 38°30' W 123°59'816.1
2016-May-23 18:33N 38°25' W 123°50'1615.9
2016-May-23 17:34N 38°16' W 123°33'1313.3
2016-May-23 16:33N 38°08' W 123°19'9 9.1
2016-May-23 15:33N 38°01' W 123°12'9 9.0
2016-May-23 14:34N 37°56' W 123°03'9 9.4
2016-May-23 13:33N 37°51' W 122°52'9 9.1
2016-May-23 12:33N 37°45' W 122°43'10 9.9
2016-May-23 11:33N 37°48' W 122°32'9 9.4
2016-May-23 10:33N 37°49' W 122°20'0 0.2
2016-May-23 09:32N 37°49' W 122°20'0 0.0
2016-May-23 08:32N 37°49' W 122°20'0 0.0
2016-May-23 07:32N 37°49' W 122°20'0 0.0
2016-May-23 06:32N 37°49' W 122°20'0 0.0
2016-May-23 05:32N 37°49' W 122°20'0 0.0
2016-May-23 04:32N 37°49' W 122°20'0 0.0
2016-May-23 03:32N 37°49' W 122°20'0 0.0
2016-May-23 02:32N 37°49' W 122°20'0 0.0
2016-May-23 01:32N 37°49' W 122°20'0 0.0
2016-May-23 00:32N 37°49' W 122°20'0 0.0
2016-May-22 23:32N 37°49' W 122°20'0 0.0
2016-May-22 22:32N 37°49' W 122°20'0 0.0
2016-May-22 21:32N 37°49' W 122°20'0 0.0
2016-May-22 20:32N 37°49' W 122°20'0 0.0
2016-May-22 19:32N 37°49' W 122°20'0 0.0
2016-May-22 18:32N 37°49' W 122°20'0 0.0
2016-May-22 17:32N 37°49' W 122°20'0 0.0
2016-May-22 16:29N 37°49' W 122°20'0 0.0
2016-May-22 15:32N 37°49' W 122°20'0 0.0
2016-May-22 14:32N 37°49' W 122°20'3 3.2
2016-May-22 13:33N 37°49' W 122°24'8 8.2
2016-May-22 12:33N 37°47' W 122°34'9 8.5
2016-May-22 11:33N 37°40' W 122°40'4 4.1
2016-May-22 10:33N 37°36' W 122°40'8 8.4
2016-May-22 09:34N 37°28' W 122°40'9 8.9
2016-May-22 08:33N 37°19' W 122°40'8 7.9
2016-May-22 07:33N 37°11' W 122°40'1918.5
2016-May-22 06:33N 36°52' W 122°40'2121.1
2016-May-22 05:33N 36°32' W 122°35'2221.8
2016-May-22 04:33N 36°11' W 122°26'2222.2
2016-May-22 03:33N 35°50' W 122°17'2221.9
2016-May-22 02:33N 35°32' W 122°02'20418.0
2016-May-21 15:12N 33°44' W 118°31'911.6
2016-May-21 14:26N 33°39' W 118°22'7 7.5
2016-May-21 13:32N 33°42' W 118°14'4 0.2
2016-May-20 18:04N 33°46' W 118°16'0 0.0
2016-May-20 17:31N 33°46' W 118°16'0 0.0
2016-May-20 16:31N 33°46' W 118°16'0 0.0
2016-May-20 15:31N 33°46' W 118°16'0 0.0
2016-May-20 14:28N 33°46' W 118°16'0 0.0
2016-May-20 13:31N 33°46' W 118°16'0 0.0
2016-May-20 12:31N 33°46' W 118°16'0 0.0
2016-May-20 11:31N 33°46' W 118°16'0 0.0
2016-May-20 10:31N 33°46' W 118°16'0 0.0
2016-May-20 09:31N 33°46' W 118°16'0 0.1
2016-May-20 08:31N 33°46' W 118°16'0 0.1
2016-May-20 07:31N 33°46' W 118°16'0 0.0
2016-May-20 06:31N 33°46' W 118°16'0 0.0
2016-May-20 05:31N 33°46' W 118°16'0 0.0
2016-May-20 04:31N 33°46' W 118°16'0 0.0
2016-May-20 03:28N 33°46' W 118°16'0 0.0
2016-May-20 02:31N 33°46' W 118°16'0 0.0
2016-May-20 01:25N 33°46' W 118°16'0 0.0
2016-May-20 00:31N 33°46' W 118°16'0 0.0
2016-May-19 23:31N 33°46' W 118°16'0 0.0
2016-May-19 22:31N 33°46' W 118°16'0 0.0
2016-May-19 21:31N 33°46' W 118°16'0 0.0
2016-May-19 20:31N 33°46' W 118°16'0 0.0
2016-May-19 19:31N 33°46' W 118°16'0 0.0
2016-May-19 18:31N 33°46' W 118°16'0 0.0
2016-May-19 17:31N 33°46' W 118°16'0 0.0
2016-May-19 16:31N 33°46' W 118°16'0 0.0
2016-May-19 15:31N 33°46' W 118°16'0 0.0
2016-May-19 14:31N 33°46' W 118°16'0 0.3
2016-May-19 13:33N 33°46' W 118°16'0 0.1
2016-May-19 12:29N 33°46' W 118°16'0 0.0
2016-May-19 11:29N 33°46' W 118°16'0 0.0
2016-May-19 10:32N 33°46' W 118°16'0 0.0
2016-May-19 09:32N 33°46' W 118°16'0 0.0
2016-May-19 08:32N 33°46' W 118°16'0 0.0
2016-May-19 07:26N 33°46' W 118°16'  
2016-May-16 22:20N 33°45' W 118°16'9 5.2
2016-May-16 20:30N 33°36' W 118°20'19413.9
2016-May-16 06:34N 34°37' W 122°02'1615.3
2016-May-16 05:31N 34°40' W 122°22'1818.1
2016-May-16 04:31N 34°44' W 122°43'1715.4
2016-May-16 03:23N 34°47' W 123°04'1315.4
2016-May-16 02:34N 34°50' W 123°19'1615.3
2016-May-16 01:29N 34°53' W 123°38'1410.7
2016-May-16 00:10N 34°56' W 123°55'  
Track history (hours):
 
Tides and Currents Weather Stations Pressure Air Temp Water Temp Dewpoint Dewpoint Depression Visibility Wind Speed Wind Dir Waves Ship Positions

MOL Celebration

Last reported at 2016-May-23 19:05 UTC. Time now 2016-May-25 18:52 UTC.
Position N 38°30' W 123°59'.

Length 316 m; draft 12.5 m.

Type: Ship (hazmat cat D). MMSI: 309901000.

Date/timePositionNaut miles runAvg speedWind from/ knotsBaromVisibWave heightAir tempDewpointWater temp
2016-May-23 19:05N 38°30' W 123°59'816.1
2016-May-23 18:33N 38°25' W 123°50'1615.9
2016-May-23 17:34N 38°16' W 123°33'1313.3
2016-May-23 16:33N 38°08' W 123°19'9 9.1
2016-May-23 15:33N 38°01' W 123°12'9 9.0
2016-May-23 14:34N 37°56' W 123°03'9 9.4
2016-May-23 13:33N 37°51' W 122°52'9 9.1
2016-May-23 12:33N 37°45' W 122°43'10 9.9
2016-May-23 11:33N 37°48' W 122°32'9 9.4
2016-May-23 10:33N 37°49' W 122°20'0 0.2
2016-May-23 09:32N 37°49' W 122°20'0 0.0
2016-May-23 08:32N 37°49' W 122°20'0 0.0
2016-May-23 07:32N 37°49' W 122°20'0 0.0
2016-May-23 06:32N 37°49' W 122°20'0 0.0
2016-May-23 05:32N 37°49' W 122°20'0 0.0
2016-May-23 04:32N 37°49' W 122°20'0 0.0
2016-May-23 03:32N 37°49' W 122°20'0 0.0
2016-May-23 02:32N 37°49' W 122°20'0 0.0
2016-May-23 01:32N 37°49' W 122°20'0 0.0
2016-May-23 00:32N 37°49' W 122°20'0 0.0
2016-May-22 23:32N 37°49' W 122°20'0 0.0
2016-May-22 22:32N 37°49' W 122°20'0 0.0
2016-May-22 21:32N 37°49' W 122°20'0 0.0
2016-May-22 20:32N 37°49' W 122°20'0 0.0
2016-May-22 19:32N 37°49' W 122°20'0 0.0
2016-May-22 18:32N 37°49' W 122°20'0 0.0
2016-May-22 17:32N 37°49' W 122°20'0 0.0
2016-May-22 16:29N 37°49' W 122°20'0 0.0
2016-May-22 15:32N 37°49' W 122°20'0 0.0
2016-May-22 14:32N 37°49' W 122°20'3 3.2
2016-May-22 13:33N 37°49' W 122°24'8 8.2
2016-May-22 12:33N 37°47' W 122°34'9 8.5
2016-May-22 11:33N 37°40' W 122°40'4 4.1
2016-May-22 10:33N 37°36' W 122°40'8 8.4
2016-May-22 09:34N 37°28' W 122°40'9 8.9
2016-May-22 08:33N 37°19' W 122°40'8 7.9
2016-May-22 07:33N 37°11' W 122°40'1918.5
2016-May-22 06:33N 36°52' W 122°40'2121.1
2016-May-22 05:33N 36°32' W 122°35'2221.8
2016-May-22 04:33N 36°11' W 122°26'2222.2
2016-May-22 03:33N 35°50' W 122°17'2221.9
2016-May-22 02:33N 35°32' W 122°02'20418.0
2016-May-21 15:12N 33°44' W 118°31'911.6
2016-May-21 14:26N 33°39' W 118°22'7 7.5
2016-May-21 13:32N 33°42' W 118°14'4 0.2
2016-May-20 18:04N 33°46' W 118°16'0 0.0
2016-May-20 17:31N 33°46' W 118°16'0 0.0
2016-May-20 16:31N 33°46' W 118°16'0 0.0
2016-May-20 15:31N 33°46' W 118°16'0 0.0
2016-May-20 14:28N 33°46' W 118°16'0 0.0
2016-May-20 13:31N 33°46' W 118°16'0 0.0
2016-May-20 12:31N 33°46' W 118°16'0 0.0
2016-May-20 11:31N 33°46' W 118°16'0 0.0
2016-May-20 10:31N 33°46' W 118°16'0 0.0
2016-May-20 09:31N 33°46' W 118°16'0 0.1
2016-May-20 08:31N 33°46' W 118°16'0 0.1
2016-May-20 07:31N 33°46' W 118°16'0 0.0
2016-May-20 06:31N 33°46' W 118°16'0 0.0
2016-May-20 05:31N 33°46' W 118°16'0 0.0
2016-May-20 04:31N 33°46' W 118°16'0 0.0
2016-May-20 03:28N 33°46' W 118°16'0 0.0
2016-May-20 02:31N 33°46' W 118°16'0 0.0
2016-May-20 01:25N 33°46' W 118°16'0 0.0
2016-May-20 00:31N 33°46' W 118°16'0 0.0
2016-May-19 23:31N 33°46' W 118°16'0 0.0
2016-May-19 22:31N 33°46' W 118°16'0 0.0
2016-May-19 21:31N 33°46' W 118°16'0 0.0
2016-May-19 20:31N 33°46' W 118°16'0 0.0
2016-May-19 19:31N 33°46' W 118°16'0 0.0
2016-May-19 18:31N 33°46' W 118°16'0 0.0
2016-May-19 17:31N 33°46' W 118°16'0 0.0
2016-May-19 16:31N 33°46' W 118°16'0 0.0
2016-May-19 15:31N 33°46' W 118°16'0 0.0
2016-May-19 14:31N 33°46' W 118°16'0 0.3
2016-May-19 13:33N 33°46' W 118°16'0 0.1
2016-May-19 12:29N 33°46' W 118°16'0 0.0
2016-May-19 11:29N 33°46' W 118°16'0 0.0
2016-May-19 10:32N 33°46' W 118°16'0 0.0
2016-May-19 09:32N 33°46' W 118°16'0 0.0
2016-May-19 08:32N 33°46' W 118°16'0 0.0
2016-May-19 07:26N 33°46' W 118°16'  
2016-May-16 22:20N 33°45' W 118°16'9 5.2
2016-May-16 20:30N 33°36' W 118°20'19413.9
2016-May-16 06:34N 34°37' W 122°02'1615.3
2016-May-16 05:31N 34°40' W 122°22'1818.1
2016-May-16 04:31N 34°44' W 122°43'1715.4
2016-May-16 03:23N 34°47' W 123°04'1315.4
2016-May-16 02:34N 34°50' W 123°19'1615.3
2016-May-16 01:29N 34°53' W 123°38'1410.7
2016-May-16 00:10N 34°56' W 123°55'  

Dump ship's entire track history